sensor_id;sensor_type;location;lat;lon;timestamp;pressure;altitude;pressure_sealevel;temperature;humidity
26436;BME280;15351;52.408;16.826;2023-04-22T00:01:01;100906.67;;;12.44;53.32
26436;BME280;15351;52.408;16.826;2023-04-22T00:03:31;100906.30;;;12.40;53.65
26436;BME280;15351;52.408;16.826;2023-04-22T00:06:24;100902.93;;;12.36;53.68
26436;BME280;15351;52.408;16.826;2023-04-22T00:09:02;100896.69;;;12.28;53.87
26436;BME280;15351;52.408;16.826;2023-04-22T00:11:30;100898.29;;;12.27;54.04
26436;BME280;15351;52.408;16.826;2023-04-22T00:14:21;100897.22;;;12.20;53.90
26436;BME280;15351;52.408;16.826;2023-04-22T00:16:54;100895.19;;;12.13;54.15
26436;BME280;15351;52.408;16.826;2023-04-22T00:19:27;100884.17;;;12.03;54.41
26436;BME280;15351;52.408;16.826;2023-04-22T00:22:47;100885.46;;;11.98;54.50
26436;BME280;15351;52.408;16.826;2023-04-22T00:25:56;100892.74;;;11.96;54.60
26436;BME280;15351;52.408;16.826;2023-04-22T00:29:06;100891.67;;;11.93;54.67
26436;BME280;15351;52.408;16.826;2023-04-22T00:31:43;100889.57;;;11.87;54.93
26436;BME280;15351;52.408;16.826;2023-04-22T00:34:26;100888.69;;;11.83;54.93
26436;BME280;15351;52.408;16.826;2023-04-22T00:37:05;100887.73;;;11.77;55.08
26436;BME280;15351;52.408;16.826;2023-04-22T00:39:32;100886.40;;;11.73;55.27
26436;BME280;15351;52.408;16.826;2023-04-22T00:42:35;100882.42;;;11.69;55.36
26436;BME280;15351;52.408;16.826;2023-04-22T00:46:19;100880.35;;;11.62;55.48
26436;BME280;15351;52.408;16.826;2023-04-22T00:49:11;100879.29;;;11.57;55.63
26436;BME280;15351;52.408;16.826;2023-04-22T00:56:19;100886.69;;;11.46;55.83
26436;BME280;15351;52.408;16.826;2023-04-22T00:59:15;100889.34;;;11.42;55.92
26436;BME280;15351;52.408;16.826;2023-04-22T01:01:46;100884.91;;;11.36;55.98
26436;BME280;15351;52.408;16.826;2023-04-22T01:04:30;100886.41;;;11.32;56.35
26436;BME280;15351;52.408;16.826;2023-04-22T01:10:31;100892.55;;;11.21;56.32
26436;BME280;15351;52.408;16.826;2023-04-22T01:13:23;100890.40;;;11.15;56.47
26436;BME280;15351;52.408;16.826;2023-04-22T01:16:11;100891.05;;;11.09;56.72
26436;BME280;15351;52.408;16.826;2023-04-22T01:19:42;100891.63;;;11.03;57.10
26436;BME280;15351;52.408;16.826;2023-04-22T01:22:52;100892.23;;;10.99;57.12
26436;BME280;15351;52.408;16.826;2023-04-22T01:25:50;100894.55;;;10.94;57.25
26436;BME280;15351;52.408;16.826;2023-04-22T01:28:22;100889.95;;;10.89;57.31
26436;BME280;15351;52.408;16.826;2023-04-22T01:31:19;100896.89;;;10.84;57.56
26436;BME280;15351;52.408;16.826;2023-04-22T01:37:56;100896.59;;;10.72;57.65
26436;BME280;15351;52.408;16.826;2023-04-22T01:40:30;100893.55;;;10.65;57.92
26436;BME280;15351;52.408;16.826;2023-04-22T01:43:19;100895.05;;;10.61;58.14
26436;BME280;15351;52.408;16.826;2023-04-22T01:49:38;100883.52;;;10.49;58.26
26436;BME280;15351;52.408;16.826;2023-04-22T01:52:08;100888.96;;;10.50;58.45
26436;BME280;15351;52.408;16.826;2023-04-22T01:54:43;100887.50;;;10.46;58.43
26436;BME280;15351;52.408;16.826;2023-04-22T01:57:12;100885.61;;;10.42;58.45
26436;BME280;15351;52.408;16.826;2023-04-22T01:59:42;100882.80;;;10.37;58.52
26436;BME280;15351;52.408;16.826;2023-04-22T02:05:21;100881.65;;;10.28;58.81
26436;BME280;15351;52.408;16.826;2023-04-22T02:08:18;100882.85;;;10.24;58.91
26436;BME280;15351;52.408;16.826;2023-04-22T02:10:46;100879.98;;;10.19;59.01
26436;BME280;15351;52.408;16.826;2023-04-22T02:13:58;100874.41;;;10.12;59.02
26436;BME280;15351;52.408;16.826;2023-04-22T02:19:40;100883.11;;;10.07;59.37
26436;BME280;15351;52.408;16.826;2023-04-22T02:22:45;100879.72;;;10.01;59.33
26436;BME280;15351;52.408;16.826;2023-04-22T02:26:01;100878.30;;;9.99;59.69
26436;BME280;15351;52.408;16.826;2023-04-22T02:35:20;100873.73;;;9.94;60.06
26436;BME280;15351;52.408;16.826;2023-04-22T02:38:17;100870.42;;;9.90;60.23
26436;BME280;15351;52.408;16.826;2023-04-22T02:41:11;100865.48;;;9.86;60.25
26436;BME280;15351;52.408;16.826;2023-04-22T02:43:55;100859.47;;;9.81;60.29
26436;BME280;15351;52.408;16.826;2023-04-22T02:46:22;100862.98;;;9.80;60.53
26436;BME280;15351;52.408;16.826;2023-04-22T02:48:53;100865.36;;;9.75;60.55
26436;BME280;15351;52.408;16.826;2023-04-22T02:52:09;100865.14;;;9.72;60.76
26436;BME280;15351;52.408;16.826;2023-04-22T02:58:16;100863.21;;;9.68;60.62
26436;BME280;15351;52.408;16.826;2023-04-22T03:01:02;100864.20;;;9.66;60.68
26436;BME280;15351;52.408;16.826;2023-04-22T03:03:29;100860.89;;;9.61;60.64
26436;BME280;15351;52.408;16.826;2023-04-22T03:09:24;100856.98;;;9.52;60.82
26436;BME280;15351;52.408;16.826;2023-04-22T03:12:27;100858.73;;;9.47;60.89
26436;BME280;15351;52.408;16.826;2023-04-22T03:15:03;100864.95;;;9.41;60.95
26436;BME280;15351;52.408;16.826;2023-04-22T03:17:44;100861.59;;;9.37;61.20
26436;BME280;15351;52.408;16.826;2023-04-22T03:20:37;100859.08;;;9.35;61.45
26436;BME280;15351;52.408;16.826;2023-04-22T03:23:23;100856.81;;;9.33;61.37
26436;BME280;15351;52.408;16.826;2023-04-22T03:29:24;100854.14;;;9.29;61.37
26436;BME280;15351;52.408;16.826;2023-04-22T03:32:48;100855.02;;;9.26;61.54
26436;BME280;15351;52.408;16.826;2023-04-22T03:35:51;100852.89;;;9.22;61.50
26436;BME280;15351;52.408;16.826;2023-04-22T03:38:21;100848.81;;;9.17;61.56
26436;BME280;15351;52.408;16.826;2023-04-22T03:40:58;100848.01;;;9.16;61.74
26436;BME280;15351;52.408;16.826;2023-04-22T03:43:44;100847.97;;;9.16;61.90
26436;BME280;15351;52.408;16.826;2023-04-22T03:46:11;100842.36;;;9.17;61.96
26436;BME280;15351;52.408;16.826;2023-04-22T03:48:44;100846.30;;;9.17;61.91
26436;BME280;15351;52.408;16.826;2023-04-22T03:51:21;100847.27;;;9.18;61.94
26436;BME280;15351;52.408;16.826;2023-04-22T03:54:01;100844.08;;;9.17;62.02
26436;BME280;15351;52.408;16.826;2023-04-22T03:56:35;100848.68;;;9.16;62.10
26436;BME280;15351;52.408;16.826;2023-04-22T03:59:05;100849.87;;;9.14;62.15
26436;BME280;15351;52.408;16.826;2023-04-22T04:01:58;100848.25;;;9.12;62.24
26436;BME280;15351;52.408;16.826;2023-04-22T04:04:30;100847.48;;;9.12;62.40
26436;BME280;15351;52.408;16.826;2023-04-22T04:07:00;100848.33;;;9.13;62.43
26436;BME280;15351;52.408;16.826;2023-04-22T04:09:31;100843.92;;;9.14;62.32
26436;BME280;15351;52.408;16.826;2023-04-22T04:12:01;100847.89;;;9.15;62.44
26436;BME280;15351;52.408;16.826;2023-04-22T04:15:26;100847.54;;;9.17;62.42
26436;BME280;15351;52.408;16.826;2023-04-22T04:18:09;100844.79;;;9.18;62.46
26436;BME280;15351;52.408;16.826;2023-04-22T04:20:38;100838.58;;;9.19;62.62
26436;BME280;15351;52.408;16.826;2023-04-22T04:26:09;100836.22;;;9.26;62.73
26436;BME280;15351;52.408;16.826;2023-04-22T04:28:59;100839.40;;;9.29;62.75
26436;BME280;15351;52.408;16.826;2023-04-22T04:31:46;100839.38;;;9.33;62.75
26436;BME280;15351;52.408;16.826;2023-04-22T04:34:30;100841.66;;;9.35;62.81
26436;BME280;15351;52.408;16.826;2023-04-22T04:37:26;100837.11;;;9.35;62.87
26436;BME280;15351;52.408;16.826;2023-04-22T04:40:06;100835.91;;;9.40;63.12
26436;BME280;15351;52.408;16.826;2023-04-22T04:43:16;100838.54;;;9.46;63.03
26436;BME280;15351;52.408;16.826;2023-04-22T04:46:19;100840.23;;;9.51;63.07
26436;BME280;15351;52.408;16.826;2023-04-22T04:49:15;100842.45;;;9.56;63.14
26436;BME280;15351;52.408;16.826;2023-04-22T04:52:00;100841.39;;;9.61;63.12
26436;BME280;15351;52.408;16.826;2023-04-22T04:54:32;100842.25;;;9.65;63.12
26436;BME280;15351;52.408;16.826;2023-04-22T04:57:00;100843.91;;;9.71;63.01
26436;BME280;15351;52.408;16.826;2023-04-22T05:02:19;100839.20;;;9.85;63.16
26436;BME280;15351;52.408;16.826;2023-04-22T05:04:50;100836.27;;;9.91;62.92
26436;BME280;15351;52.408;16.826;2023-04-22T05:07:20;100831.44;;;9.96;62.90
26436;BME280;15351;52.408;16.826;2023-04-22T05:09:50;100835.73;;;10.03;63.01
26436;BME280;15351;52.408;16.826;2023-04-22T05:12:25;100837.70;;;10.08;62.72
26436;BME280;15351;52.408;16.826;2023-04-22T05:15:10;100841.48;;;10.11;62.75
26436;BME280;15351;52.408;16.826;2023-04-22T05:17:46;100840.20;;;10.19;62.97
26436;BME280;15351;52.408;16.826;2023-04-22T05:20:19;100833.04;;;10.27;62.92
26436;BME280;15351;52.408;16.826;2023-04-22T05:23:11;100838.14;;;10.36;62.90
26436;BME280;15351;52.408;16.826;2023-04-22T05:25:55;100834.52;;;10.43;63.01
26436;BME280;15351;52.408;16.826;2023-04-22T05:29:06;100835.98;;;10.52;62.89
26436;BME280;15351;52.408;16.826;2023-04-22T05:31:59;100838.29;;;10.60;62.87
26436;BME280;15351;52.408;16.826;2023-04-22T05:34:49;100839.16;;;10.70;62.67
26436;BME280;15351;52.408;16.826;2023-04-22T05:37:39;100834.79;;;10.83;62.51
26436;BME280;15351;52.408;16.826;2023-04-22T05:40:29;100837.23;;;10.95;61.85
26436;BME280;15351;52.408;16.826;2023-04-22T05:43:00;100836.69;;;11.05;61.72
26436;BME280;15351;52.408;16.826;2023-04-22T05:45:30;100833.72;;;11.11;61.46
26436;BME280;15351;52.408;16.826;2023-04-22T05:48:00;100829.95;;;11.18;61.13
26436;BME280;15351;52.408;16.826;2023-04-22T05:50:40;100829.27;;;11.27;60.98
26436;BME280;15351;52.408;16.826;2023-04-22T05:53:11;100828.87;;;11.33;60.92
26436;BME280;15351;52.408;16.826;2023-04-22T05:56:20;100833.20;;;11.41;60.77
26436;BME280;15351;52.408;16.826;2023-04-22T05:58:50;100834.50;;;11.47;60.70
26436;BME280;15351;52.408;16.826;2023-04-22T06:01:21;100835.76;;;11.55;60.57
26436;BME280;15351;52.408;16.826;2023-04-22T06:04:01;100838.73;;;11.62;60.29
26436;BME280;15351;52.408;16.826;2023-04-22T06:06:34;100836.77;;;11.68;60.23
26436;BME280;15351;52.408;16.826;2023-04-22T06:09:01;100838.20;;;11.74;60.03
26436;BME280;15351;52.408;16.826;2023-04-22T06:11:32;100839.20;;;11.79;59.84
26436;BME280;15351;52.408;16.826;2023-04-22T06:14:05;100844.81;;;11.85;59.97
26436;BME280;15351;52.408;16.826;2023-04-22T06:16:39;100844.73;;;11.90;59.74
26436;BME280;15351;52.408;16.826;2023-04-22T06:19:10;100839.18;;;11.95;59.66
26436;BME280;15351;52.408;16.826;2023-04-22T06:21:41;100838.46;;;12.01;59.53
26436;BME280;15351;52.408;16.826;2023-04-22T06:24:09;100838.42;;;12.07;59.31
26436;BME280;15351;52.408;16.826;2023-04-22T06:26:36;100838.23;;;12.13;58.95
26436;BME280;15351;52.408;16.826;2023-04-22T06:29:05;100835.46;;;12.19;58.90
26436;BME280;15351;52.408;16.826;2023-04-22T06:31:36;100837.52;;;12.27;58.44
26436;BME280;15351;52.408;16.826;2023-04-22T06:34:09;100834.55;;;12.35;58.35
26436;BME280;15351;52.408;16.826;2023-04-22T06:36:47;100826.80;;;12.39;58.31
26436;BME280;15351;52.408;16.826;2023-04-22T06:39:24;100831.11;;;12.50;58.09
26436;BME280;15351;52.408;16.826;2023-04-22T06:42:20;100831.57;;;12.58;57.87
26436;BME280;15351;52.408;16.826;2023-04-22T06:45:30;100823.59;;;12.67;57.87
26436;BME280;15351;52.408;16.826;2023-04-22T06:48:16;100827.13;;;12.78;57.59
26436;BME280;15351;52.408;16.826;2023-04-22T06:51:01;100822.20;;;12.88;57.37
26436;BME280;15351;52.408;16.826;2023-04-22T06:54:01;100823.98;;;12.97;57.21
26436;BME280;15351;52.408;16.826;2023-04-22T06:56:35;100821.13;;;13.06;57.06
26436;BME280;15351;52.408;16.826;2023-04-22T06:59:14;100822.34;;;13.16;57.14
26436;BME280;15351;52.408;16.826;2023-04-22T07:01:41;100812.09;;;13.21;56.96
26436;BME280;15351;52.408;16.826;2023-04-22T07:04:15;100816.83;;;13.34;56.74
26436;BME280;15351;52.408;16.826;2023-04-22T07:07:01;100817.92;;;13.47;56.41
26436;BME280;15351;52.408;16.826;2023-04-22T07:09:32;100808.57;;;13.55;56.01
26436;BME280;15351;52.408;16.826;2023-04-22T07:12:06;100813.36;;;13.67;55.79
26436;BME280;15351;52.408;16.826;2023-04-22T07:14:36;100810.68;;;13.77;55.10
26436;BME280;15351;52.408;16.826;2023-04-22T07:17:04;100806.94;;;13.88;54.76
26436;BME280;15351;52.408;16.826;2023-04-22T07:19:30;100804.48;;;13.99;54.39
26436;BME280;15351;52.408;16.826;2023-04-22T07:22:21;100799.86;;;14.12;53.54
26436;BME280;15351;52.408;16.826;2023-04-22T07:25:15;100807.14;;;14.34;53.14
26436;BME280;15351;52.408;16.826;2023-04-22T07:28:06;100808.62;;;14.64;52.77
26436;BME280;15351;52.408;16.826;2023-04-22T07:30:54;100799.48;;;15.07;52.46
26436;BME280;15351;52.408;16.826;2023-04-22T07:33:36;100800.67;;;15.48;51.63
26436;BME280;15351;52.408;16.826;2023-04-22T07:36:07;100799.26;;;15.88;51.22
26436;BME280;15351;52.408;16.826;2023-04-22T07:38:40;100800.44;;;16.22;50.49
26436;BME280;15351;52.408;16.826;2023-04-22T07:41:25;100795.95;;;16.52;50.04
26436;BME280;15351;52.408;16.826;2023-04-22T07:43:55;100793.97;;;16.84;49.92
26436;BME280;15351;52.408;16.826;2023-04-22T07:46:45;100791.48;;;17.13;50.08
26436;BME280;15351;52.408;16.826;2023-04-22T07:49:15;100792.69;;;17.31;50.03
26436;BME280;15351;52.408;16.826;2023-04-22T07:52:05;100792.70;;;17.49;50.02
26436;BME280;15351;52.408;16.826;2023-04-22T07:54:32;100790.28;;;17.67;50.13
26436;BME280;15351;52.408;16.826;2023-04-22T07:57:00;100785.48;;;17.81;50.32
26436;BME280;15351;52.408;16.826;2023-04-22T07:59:56;100786.02;;;17.95;49.69
26436;BME280;15351;52.408;16.826;2023-04-22T08:02:24;100784.06;;;18.08;48.87
26436;BME280;15351;52.408;16.826;2023-04-22T08:04:51;100784.88;;;18.17;49.00
26436;BME280;15351;52.408;16.826;2023-04-22T08:07:36;100787.52;;;18.30;48.51
26436;BME280;15351;52.408;16.826;2023-04-22T08:10:19;100787.30;;;18.42;47.29
26436;BME280;15351;52.408;16.826;2023-04-22T08:12:46;100781.53;;;18.54;46.41
26436;BME280;15351;52.408;16.826;2023-04-22T08:18:28;100782.66;;;18.82;45.79
26436;BME280;15351;52.408;16.826;2023-04-22T08:21:18;100779.55;;;18.97;45.16
26436;BME280;15351;52.408;16.826;2023-04-22T08:24:06;100777.60;;;19.07;44.28
26436;BME280;15351;52.408;16.826;2023-04-22T08:26:47;100773.66;;;19.20;43.76
26436;BME280;15351;52.408;16.826;2023-04-22T08:29:16;100773.83;;;19.31;43.20
26436;BME280;15351;52.408;16.826;2023-04-22T08:31:45;100775.75;;;19.47;43.16
26436;BME280;15351;52.408;16.826;2023-04-22T08:34:39;100771.75;;;19.59;42.55
26436;BME280;15351;52.408;16.826;2023-04-22T08:37:20;100770.20;;;19.73;43.51
26436;BME280;15351;52.408;16.826;2023-04-22T08:39:58;100766.75;;;19.92;43.46
26436;BME280;15351;52.408;16.826;2023-04-22T08:42:29;100767.27;;;20.04;42.39
26436;BME280;15351;52.408;16.826;2023-04-22T08:45:02;100767.02;;;20.15;42.10
26436;BME280;15351;52.408;16.826;2023-04-22T08:47:30;100765.19;;;20.29;41.06
26436;BME280;15351;52.408;16.826;2023-04-22T08:50:19;100757.03;;;20.38;40.05
26436;BME280;15351;52.408;16.826;2023-04-22T08:52:53;100758.99;;;20.52;39.62
26436;BME280;15351;52.408;16.826;2023-04-22T08:55:44;100756.65;;;20.71;40.59
26436;BME280;15351;52.408;16.826;2023-04-22T08:58:14;100760.16;;;20.92;40.09
26436;BME280;15351;52.408;16.826;2023-04-22T09:03:38;100753.87;;;21.16;38.76
26436;BME280;15351;52.408;16.826;2023-04-22T09:06:29;100753.91;;;21.29;39.71
26436;BME280;15351;52.408;16.826;2023-04-22T09:09:11;100751.51;;;21.44;38.89
26436;BME280;15351;52.408;16.826;2023-04-22T09:11:54;100753.80;;;21.50;37.69
26436;BME280;15351;52.408;16.826;2023-04-22T09:14:21;100752.52;;;21.47;36.83
26436;BME280;15351;52.408;16.826;2023-04-22T09:16:58;100751.91;;;21.53;37.44
26436;BME280;15351;52.408;16.826;2023-04-22T09:19:27;100749.81;;;21.71;38.78
26436;BME280;15351;52.408;16.826;2023-04-22T09:22:18;100752.44;;;21.90;38.42
26436;BME280;15351;52.408;16.826;2023-04-22T09:28:11;100750.64;;;22.11;36.37
26436;BME280;15351;52.408;16.826;2023-04-22T09:31:05;100743.10;;;22.18;35.45
26436;BME280;15351;52.408;16.826;2023-04-22T09:33:37;100740.64;;;22.18;35.11
26436;BME280;15351;52.408;16.826;2023-04-22T09:40:01;100734.55;;;22.56;36.85
26436;BME280;15351;52.408;16.826;2023-04-22T09:42:47;100733.59;;;22.76;37.50
26436;BME280;15351;52.408;16.826;2023-04-22T09:49:22;100718.67;;;23.04;35.98
26436;BME280;15351;52.408;16.826;2023-04-22T09:52:06;100718.60;;;23.12;35.51
26436;BME280;15351;52.408;16.826;2023-04-22T09:55:20;100714.79;;;23.29;36.32
26436;BME280;15351;52.408;16.826;2023-04-22T09:58:14;100710.25;;;23.40;35.87
26436;BME280;15351;52.408;16.826;2023-04-22T10:04:10;100705.36;;;23.59;34.95
26436;BME280;15351;52.408;16.826;2023-04-22T10:07:01;100710.55;;;23.70;35.07
26436;BME280;15351;52.408;16.826;2023-04-22T10:10:01;100706.88;;;23.79;35.31
26436;BME280;15351;52.408;16.826;2023-04-22T10:13:27;100711.14;;;23.87;34.62
26436;BME280;15351;52.408;16.826;2023-04-22T10:16:23;100712.73;;;23.86;33.36
26436;BME280;15351;52.408;16.826;2023-04-22T10:18:56;100705.67;;;23.75;31.98
26436;BME280;15351;52.408;16.826;2023-04-22T10:21:27;100701.92;;;23.59;31.17
26436;BME280;15351;52.408;16.826;2023-04-22T10:23:59;100703.14;;;23.46;31.01
26436;BME280;15351;52.408;16.826;2023-04-22T10:26:48;100702.41;;;23.47;31.37
26436;BME280;15351;52.408;16.826;2023-04-22T10:29:20;100700.84;;;23.48;30.74
26436;BME280;15351;52.408;16.826;2023-04-22T10:36:06;100688.51;;;23.50;31.40
26436;BME280;15351;52.408;16.826;2023-04-22T10:39:24;100690.83;;;23.63;31.25
26436;BME280;15351;52.408;16.826;2023-04-22T10:48:56;100686.12;;;23.73;33.05
26436;BME280;15351;52.408;16.826;2023-04-22T10:51:52;100682.81;;;23.88;32.38
26436;BME280;15351;52.408;16.826;2023-04-22T10:57:38;100679.98;;;23.86;30.57
26436;BME280;15351;52.408;16.826;2023-04-22T11:00:51;100670.95;;;23.83;30.54
26436;BME280;15351;52.408;16.826;2023-04-22T11:03:50;100663.90;;;23.96;32.54
26436;BME280;15351;52.408;16.826;2023-04-22T11:10:51;100661.16;;;23.97;30.48
26436;BME280;15351;52.408;16.826;2023-04-22T11:14:08;100660.61;;;24.03;30.59
26436;BME280;15351;52.408;16.826;2023-04-22T11:17:38;100657.30;;;24.11;30.59
26436;BME280;15351;52.408;16.826;2023-04-22T11:23:53;100642.80;;;24.12;31.33
26436;BME280;15351;52.408;16.826;2023-04-22T11:30:06;100630.73;;;24.35;30.93
26436;BME280;15351;52.408;16.826;2023-04-22T11:32:39;100625.67;;;24.36;31.20
26436;BME280;15351;52.408;16.826;2023-04-22T11:39:37;100615.88;;;24.42;31.29
26436;BME280;15351;52.408;16.826;2023-04-22T11:42:48;100622.94;;;24.28;30.50
26436;BME280;15351;52.408;16.826;2023-04-22T11:45:26;100620.02;;;24.20;30.62
26436;BME280;15351;52.408;16.826;2023-04-22T11:48:44;100616.71;;;24.11;30.50
26436;BME280;15351;52.408;16.826;2023-04-22T11:51:53;100613.48;;;24.09;30.76
26436;BME280;15351;52.408;16.826;2023-04-22T12:06:05;100599.88;;;24.00;30.93
26436;BME280;15351;52.408;16.826;2023-04-22T12:13:30;100597.46;;;24.08;30.56
26436;BME280;15351;52.408;16.826;2023-04-22T12:23:18;100589.27;;;23.94;30.29
26436;BME280;15351;52.408;16.826;2023-04-22T12:26:42;100591.58;;;23.94;30.19
26436;BME280;15351;52.408;16.826;2023-04-22T12:33:13;100577.22;;;23.64;29.78
26436;BME280;15351;52.408;16.826;2023-04-22T12:44:28;100568.92;;;23.43;29.89
26436;BME280;15351;52.408;16.826;2023-04-22T12:47:37;100563.23;;;23.37;29.80
26436;BME280;15351;52.408;16.826;2023-04-22T12:54:45;100559.16;;;23.32;30.44
26436;BME280;15351;52.408;16.826;2023-04-22T13:05:20;100548.48;;;23.30;30.43
26436;BME280;15351;52.408;16.826;2023-04-22T13:08:08;100546.17;;;23.29;30.91
26436;BME280;15351;52.408;16.826;2023-04-22T13:11:09;100539.48;;;23.29;30.64
26436;BME280;15351;52.408;16.826;2023-04-22T13:14:09;100535.20;;;23.26;30.45
26436;BME280;15351;52.408;16.826;2023-04-22T13:16:58;100533.33;;;23.25;30.28
26436;BME280;15351;52.408;16.826;2023-04-22T13:29:11;100522.33;;;23.04;30.39
26436;BME280;15351;52.408;16.826;2023-04-22T13:32:10;100516.50;;;22.95;30.50
26436;BME280;15351;52.408;16.826;2023-04-22T13:34:49;100518.47;;;22.90;30.34
26436;BME280;15351;52.408;16.826;2023-04-22T13:37:42;100511.48;;;22.86;30.41
26436;BME280;15351;52.408;16.826;2023-04-22T13:41:08;100511.17;;;22.84;30.79
26436;BME280;15351;52.408;16.826;2023-04-22T13:43:48;100507.08;;;22.83;31.08
26436;BME280;15351;52.408;16.826;2023-04-22T13:46:46;100510.16;;;22.77;30.69
26436;BME280;15351;52.408;16.826;2023-04-22T13:49:21;100505.05;;;22.70;30.41
26436;BME280;15351;52.408;16.826;2023-04-22T13:55:35;100502.45;;;22.65;29.96
26436;BME280;15351;52.408;16.826;2023-04-22T13:58:12;100495.05;;;22.64;30.13
26436;BME280;15351;52.408;16.826;2023-04-22T14:00:49;100489.99;;;22.64;30.12
26436;BME280;15351;52.408;16.826;2023-04-22T14:04:01;100486.16;;;22.62;29.88
26436;BME280;15351;52.408;16.826;2023-04-22T14:07:24;100486.88;;;22.52;29.64
26436;BME280;15351;52.408;16.826;2023-04-22T14:10:10;100488.11;;;22.50;29.60
26436;BME280;15351;52.408;16.826;2023-04-22T14:12:41;100480.91;;;22.44;29.66
26436;BME280;15351;52.408;16.826;2023-04-22T14:15:30;100486.14;;;22.41;30.00
26436;BME280;15351;52.408;16.826;2023-04-22T14:18:11;100478.66;;;22.33;30.02
26436;BME280;15351;52.408;16.826;2023-04-22T14:20:39;100475.00;;;22.31;30.16
26436;BME280;15351;52.408;16.826;2023-04-22T14:23:26;100473.89;;;22.30;30.05
26436;BME280;15351;52.408;16.826;2023-04-22T14:25:55;100473.85;;;22.28;30.01
26436;BME280;15351;52.408;16.826;2023-04-22T14:28:42;100473.59;;;22.25;30.10
26436;BME280;15351;52.408;16.826;2023-04-22T14:31:12;100467.93;;;22.19;30.02
26436;BME280;15351;52.408;16.826;2023-04-22T14:34:15;100470.78;;;22.16;30.19
26436;BME280;15351;52.408;16.826;2023-04-22T14:39:54;100460.83;;;22.07;30.32
26436;BME280;15351;52.408;16.826;2023-04-22T14:42:44;100454.96;;;22.03;30.47
26436;BME280;15351;52.408;16.826;2023-04-22T14:45:38;100461.35;;;22.00;30.54
26436;BME280;15351;52.408;16.826;2023-04-22T14:48:43;100457.60;;;21.93;29.96
26436;BME280;15351;52.408;16.826;2023-04-22T14:51:24;100457.06;;;21.90;30.03
26436;BME280;15351;52.408;16.826;2023-04-22T14:54:27;100461.63;;;21.88;30.31
26436;BME280;15351;52.408;16.826;2023-04-22T14:57:39;100459.41;;;21.84;30.11
26436;BME280;15351;52.408;16.826;2023-04-22T15:00:56;100458.03;;;21.80;30.31
26436;BME280;15351;52.408;16.826;2023-04-22T15:04:11;100453.54;;;21.73;30.15
26436;BME280;15351;52.408;16.826;2023-04-22T15:06:49;100449.20;;;21.70;30.39
26436;BME280;15351;52.408;16.826;2023-04-22T15:09:32;100447.16;;;21.67;30.40
26436;BME280;15351;52.408;16.826;2023-04-22T15:12:47;100450.66;;;21.63;30.11
26436;BME280;15351;52.408;16.826;2023-04-22T15:23:11;100440.36;;;21.51;30.59
26436;BME280;15351;52.408;16.826;2023-04-22T15:26:14;100437.27;;;21.50;30.34
26436;BME280;15351;52.408;16.826;2023-04-22T15:29:29;100437.07;;;21.46;30.92
26436;BME280;15351;52.408;16.826;2023-04-22T15:32:07;100431.70;;;21.42;31.58
26436;BME280;15351;52.408;16.826;2023-04-22T15:34:48;100437.79;;;21.36;31.13
26436;BME280;15351;52.408;16.826;2023-04-22T15:37:39;100431.39;;;21.29;30.46
26436;BME280;15351;52.408;16.826;2023-04-22T15:41:05;100428.67;;;21.21;30.80
26436;BME280;15351;52.408;16.826;2023-04-22T15:44:06;100432.02;;;21.16;31.06
26436;BME280;15351;52.408;16.826;2023-04-22T15:47:03;100432.38;;;21.11;30.39
26436;BME280;15351;52.408;16.826;2023-04-22T15:49:41;100432.48;;;21.03;30.15
26436;BME280;15351;52.408;16.826;2023-04-22T15:52:32;100433.49;;;20.99;30.19
26436;BME280;15351;52.408;16.826;2023-04-22T15:55:22;100435.52;;;20.96;30.46
26436;BME280;15351;52.408;16.826;2023-04-22T16:01:31;100427.55;;;20.89;31.16
26436;BME280;15351;52.408;16.826;2023-04-22T16:05:13;100422.55;;;20.81;30.60
26436;BME280;15351;52.408;16.826;2023-04-22T16:07:41;100416.91;;;20.75;30.15
26436;BME280;15351;52.408;16.826;2023-04-22T16:10:12;100419.06;;;20.73;30.94
26436;BME280;15351;52.408;16.826;2023-04-22T16:16:34;100414.98;;;20.66;30.45
26436;BME280;15351;52.408;16.826;2023-04-22T16:22:08;100410.13;;;20.63;30.96
26436;BME280;15351;52.408;16.826;2023-04-22T16:24:36;100408.23;;;20.60;31.15
26436;BME280;15351;52.408;16.826;2023-04-22T16:27:05;100406.95;;;20.59;31.53
26436;BME280;15351;52.408;16.826;2023-04-22T16:29:36;100402.77;;;20.58;31.77
26436;BME280;15351;52.408;16.826;2023-04-22T16:32:14;100402.56;;;20.54;31.64
26436;BME280;15351;52.408;16.826;2023-04-22T16:38:09;100398.79;;;20.42;31.48
26436;BME280;15351;52.408;16.826;2023-04-22T16:45:03;100389.60;;;20.36;32.58
26436;BME280;15351;52.408;16.826;2023-04-22T16:47:52;100392.83;;;20.34;32.92
26436;BME280;15351;52.408;16.826;2023-04-22T16:51:19;100389.91;;;20.29;32.45
26436;BME280;15351;52.408;16.826;2023-04-22T16:58:08;100386.29;;;20.22;32.32
26436;BME280;15351;52.408;16.826;2023-04-22T17:00:50;100381.20;;;20.14;32.50
26436;BME280;15351;52.408;16.826;2023-04-22T17:03:55;100382.56;;;20.12;32.45
26436;BME280;15351;52.408;16.826;2023-04-22T17:06:38;100384.06;;;20.10;32.88
26436;BME280;15351;52.408;16.826;2023-04-22T17:09:43;100383.55;;;20.07;32.87
26436;BME280;15351;52.408;16.826;2023-04-22T17:13:01;100376.92;;;20.01;32.93
26436;BME280;15351;52.408;16.826;2023-04-22T17:15:32;100373.63;;;19.96;33.28
26436;BME280;15351;52.408;16.826;2023-04-22T17:18:10;100372.68;;;19.93;34.37
26436;BME280;15351;52.408;16.826;2023-04-22T17:23:34;100364.33;;;19.87;35.76